Dades de l'estació automàtica Miami Platja
Resum diari
17:00 TU| Temperatura mitjana | 26.5 °C | |
|---|---|---|
| Temperatura màxima | 30.4 °C | 11:48 TU |
| Temperatura mínima | 22.4 °C | 5:13 TU |
| Humitat relativa mitjana | 78% | |
| Precipitació acumulada | 0.0 mm | |
| Ratxa màxima del vent (10 m) | 22.3 km/h - 146º | 11:06 TU |
| Pressió atmosfèrica mitjana | 1020.1 hPa | |
| Irradiació solar global | 22.4 MJ/m2 | |
El tram horari està expressat en Temps Universal (TU). Cal sumar una hora en horari d'hivern i dues en horari d'estiu per passar a l'hora oficial.
Miami Platja
| Municipi | Mont-roig del Camp |
|---|---|
| Comarca | Baix Camp |
| Altitud | 43 m |
| Data alta | 20.12.2017 |
| Estat actual | Operativa |
| Període TU |
TM °C |
TX °C |
TN °C |
HRM % |
PPT mm |
VVM (10 m) km/h |
DVM (10 m) graus |
VVX (10 m) km/h |
PM hPa |
RS W/m2 |
|---|---|---|---|---|---|---|---|---|---|---|
| 00:00 - 00:30 | 23.1 | 23.4 | 22.9 | 89 | 0.0 | 3.2 | 325 | 5.0 | 1019.8 | 0 |
| 00:30 - 01:00 | 23.0 | 23.1 | 22.8 | 90 | 0.0 | 4.3 | 324 | 6.1 | 1019.7 | 0 |
| 01:00 - 01:30 | 23.0 | 23.4 | 22.8 | 90 | 0.0 | 4.3 | 313 | 7.2 | 1019.6 | 0 |
| 01:30 - 02:00 | 23.3 | 23.4 | 23.2 | 89 | 0.0 | 4.3 | 287 | 6.5 | 1019.4 | 0 |
| 02:00 - 02:30 | 23.2 | 23.3 | 23.0 | 89 | 0.0 | 5.0 | 300 | 7.2 | 1019.4 | 0 |
| 02:30 - 03:00 | 22.8 | 23.0 | 22.7 | 90 | 0.0 | 5.8 | 303 | 7.6 | 1019.4 | 0 |
| 03:00 - 03:30 | 22.7 | 22.9 | 22.7 | 91 | 0.0 | 5.4 | 300 | 8.3 | 1019.4 | 0 |
| 03:30 - 04:00 | 22.7 | 22.8 | 22.6 | 90 | 0.0 | 6.8 | 298 | 10.8 | 1019.3 | 0 |
| 04:00 - 04:30 | 22.6 | 22.7 | 22.6 | 90 | 0.0 | 7.6 | 299 | 11.9 | 1019.3 | 0 |
| 04:30 - 05:00 | 22.5 | 22.6 | 22.5 | 90 | 0.0 | 7.9 | 295 | 11.2 | 1019.3 | 0 |
| 05:00 - 05:30 | 22.5 | 22.6 | 22.4 | 90 | 0.0 | 8.6 | 294 | 12.6 | 1019.5 | 1 |
| 05:30 - 06:00 | 22.9 | 23.4 | 22.6 | 88 | 0.0 | 8.6 | 290 | 13.3 | 1019.7 | 27 |
| 06:00 - 06:30 | 24.0 | 24.7 | 23.4 | 83 | 0.0 | 7.6 | 300 | 11.5 | 1019.8 | 95 |
| 06:30 - 07:00 | 25.5 | 26.4 | 24.7 | 77 | 0.0 | 7.6 | 291 | 11.5 | 1020.0 | 183 |
| 07:00 - 07:30 | 27.0 | 27.3 | 26.5 | 72 | 0.0 | 6.5 | 314 | 11.9 | 1019.9 | 282 |
| 07:30 - 08:00 | 27.6 | 28.2 | 27.3 | 71 | 0.0 | 4.7 | 81 | 10.4 | 1020.0 | 380 |
| 08:00 - 08:30 | 28.1 | 28.5 | 27.5 | 68 | 0.0 | 5.8 | 147 | 16.9 | 1020.3 | 494 |
| 08:30 - 09:00 | 28.7 | 29.3 | 28.1 | 68 | 0.0 | 6.1 | 155 | 11.5 | 1020.6 | 565 |
| 09:00 - 09:30 | 28.2 | 28.7 | 27.9 | 71 | 0.0 | 9.4 | 139 | 17.6 | 1020.9 | 617 |
| 09:30 - 10:00 | 28.5 | 29.2 | 28.0 | 71 | 0.0 | 11.9 | 140 | 20.5 | 1021.0 | 696 |
| 10:00 - 10:30 | 28.6 | 29.3 | 28.1 | 72 | 0.0 | 13.0 | 146 | 19.8 | 1021.1 | 746 |
| 10:30 - 11:00 | 29.1 | 29.7 | 28.5 | 70 | 0.0 | 13.3 | 162 | 22.0 | 1021.2 | 781 |
| 11:00 - 11:30 | 29.0 | 29.4 | 28.7 | 71 | 0.0 | 14.4 | 160 | 22.3 | 1021.3 | 804 |
| 11:30 - 12:00 | 29.6 | 30.4 | 28.8 | 70 | 0.0 | 12.2 | 166 | 21.6 | 1021.1 | 816 |
| 12:00 - 12:30 | 29.7 | 30.2 | 29.3 | 68 | 0.0 | 13.0 | 171 | 21.6 | 1020.9 | 818 |
| 12:30 - 13:00 | 29.9 | 30.3 | 29.3 | 68 | 0.0 | 12.2 | 159 | 20.2 | 1020.7 | 802 |
| 13:00 - 13:30 | 29.6 | 30.2 | 29.1 | 69 | 0.0 | 11.9 | 162 | 20.5 | 1020.6 | 774 |
| 13:30 - 14:00 | 29.6 | 30.2 | 29.2 | 69 | 0.0 | 11.9 | 160 | 19.1 | 1020.5 | 731 |
| 14:00 - 14:30 | 29.2 | 29.6 | 28.7 | 72 | 0.0 | 12.6 | 158 | 20.5 | 1020.4 | 675 |
| 14:30 - 15:00 | 29.3 | 29.5 | 28.9 | 70 | 0.0 | 10.8 | 154 | 16.9 | 1020.1 | 605 |
| 15:00 - 15:30 | 29.0 | 29.8 | 28.5 | 72 | 0.0 | 11.2 | 156 | 18.4 | 1020.1 | 524 |
| 15:30 - 16:00 | 28.6 | 29.3 | 28.2 | 74 | 0.0 | 11.2 | 162 | 17.3 | 1020.1 | 433 |
| 16:00 - 16:30 | 28.3 | 28.9 | 27.8 | 76 | 0.0 | 9.4 | 160 | 16.6 | 1020.1 | 248 |
| 16:30 - 17:00 | 27.9 | 28.1 | 27.7 | 78 | 0.0 | 9.7 | 165 | 17.6 | 1020.1 | 198 |
| 17:00 - 17:30 | 27.8 | 28.0 | 27.6 | 77 | 0.0 | 9.0 | 163 | 16.6 | 1020.2 | 146 |
| 17:30 - 18:00 | (s/d) | (s/d) | (s/d) | (s/d) | (s/d) | (s/d) | (s/d) | (s/d) | (s/d) | (s/d) |
Les dades en taronja només han passat un control de qualitat automàtic. Resta pendent la seva validació definitiva.